Time;durP1;ratioP1;P1;durP2;ratioP2;P2;SDS_P1;SDS_P2;PMS_P1;PMS_P2;Temp;Humidity;BMP_temperature;BMP_pressure;BME280_temperature;BME280_humidity;BME280_pressure;Samples;Min_cycle;Max_cycle;Signal;HPM_P1;HPM_P2
2022/10/07 00:00:54;;;;;;;10.60;6.95;;;9.70;99.90;;;;;;4957775;28;94240;-33
2022/10/07 00:03:22;;;;;;;6.57;5.00;;;9.70;99.90;;;;;;4958825;28;94260;-33
2022/10/07 00:06:02;;;;;;;6.22;5.63;;;9.70;99.90;;;;;;4959849;28;93570;-32
2022/10/07 00:08:28;;;;;;;10.77;6.13;;;9.70;99.90;;;;;;4959044;28;94441;-32
2022/10/07 00:10:54;;;;;;;10.32;5.50;;;9.70;99.90;;;;;;4960269;28;93129;-29
2022/10/07 00:13:20;;;;;;;8.25;5.85;;;9.70;99.90;;;;;;4958882;28;93451;-29
2022/10/07 00:15:45;;;;;;;16.38;5.85;;;9.60;99.90;;;;;;4959619;28;94236;-29
2022/10/07 00:18:11;;;;;;;6.28;5.60;;;9.60;99.90;;;;;;4958852;28;94622;-30
2022/10/07 00:20:38;;;;;;;8.40;4.97;;;9.60;99.90;;;;;;4959963;28;93066;-29
2022/10/07 00:23:05;;;;;;;10.38;6.75;;;9.60;99.90;;;;;;4959081;28;92240;-31
2022/10/07 00:25:30;;;;;;;6.25;5.32;;;9.60;99.90;;;;;;4958756;28;94903;-31
2022/10/07 00:27:56;;;;;;;9.15;5.78;;;9.60;99.90;;;;;;4959567;28;94700;-32
2022/10/07 00:30:22;;;;;;;9.38;5.63;;;9.60;99.90;;;;;;4959098;28;94609;-30
2022/10/07 00:32:48;;;;;;;14.23;7.22;;;9.60;99.90;;;;;;4959170;28;93264;-32
2022/10/07 00:35:13;;;;;;;11.95;6.30;;;9.50;99.90;;;;;;4959178;28;94292;-29
2022/10/07 00:37:41;;;;;;;12.35;6.30;;;9.50;99.90;;;;;;4958805;28;94658;-28
2022/10/07 00:40:12;;;;;;;10.13;5.65;;;9.50;99.90;;;;;;4958583;28;93330;-31
2022/10/07 00:42:39;;;;;;;8.05;6.10;;;9.50;99.90;;;;;;4958811;28;92158;-30
2022/10/07 00:45:12;;;;;;;14.77;6.07;;;9.50;99.90;;;;;;4958643;28;95681;-33
2022/10/07 00:47:39;;;;;;;7.93;5.85;;;9.50;99.90;;;;;;4958494;28;95703;-31
2022/10/07 00:50:19;;;;;;;6.72;5.55;;;9.50;99.90;;;;;;4958094;28;94665;-32
2022/10/07 00:52:52;;;;;;;7.50;5.75;;;9.40;99.90;;;;;;5012371;22;92277;-31
2022/10/07 00:55:21;;;;;;;16.25;6.35;;;9.40;99.90;;;;;;4978516;28;94745;-30
2022/10/07 00:57:49;;;;;;;12.05;5.10;;;9.50;99.90;;;;;;4978652;28;94652;-32
2022/10/07 01:00:16;;;;;;;16.40;6.63;;;9.40;99.90;;;;;;4973886;28;93397;-33
2022/10/07 01:02:41;;;;;;;5.75;5.07;;;9.50;99.90;;;;;;4979371;28;91644;-34
2022/10/07 01:05:09;;;;;;;11.52;6.65;;;9.50;99.90;;;;;;4978512;28;95198;-32
2022/10/07 01:07:35;;;;;;;10.45;5.97;;;9.40;99.90;;;;;;4957698;28;94646;-31
2022/10/07 01:10:02;;;;;;;9.85;5.32;;;9.40;99.90;;;;;;4957973;28;96267;-35
2022/10/07 01:12:43;;;;;;;12.35;5.60;;;9.40;99.90;;;;;;4958491;28;92560;-30
2022/10/07 01:15:23;;;;;;;23.05;6.75;;;9.40;99.90;;;;;;4958421;28;94965;-32
2022/10/07 01:18:01;;;;;;;9.35;6.05;;;9.30;99.90;;;;;;4958009;28;94232;-33
2022/10/07 01:20:50;;;;;;;10.65;6.80;;;9.30;99.90;;;;;;4941037;28;92557;-31
2022/10/07 01:23:48;;;;;;;10.80;5.53;;;9.30;99.90;;;;;;4954316;28;92976;-32
2022/10/07 01:26:13;;;;;;;16.20;6.03;;;9.30;99.90;;;;;;4929354;28;95024;-32
2022/10/07 01:28:49;;;;;;;10.38;6.15;;;9.30;99.90;;;;;;4956559;28;94793;-33
2022/10/07 01:31:19;;;;;;;13.70;5.85;;;9.30;99.90;;;;;;4958420;28;94476;-32
2022/10/07 01:33:46;;;;;;;6.75;5.43;;;9.20;99.90;;;;;;4958205;28;94338;-30
2022/10/07 01:36:15;;;;;;;11.07;5.97;;;9.20;99.90;;;;;;4956970;28;95716;-35
2022/10/07 01:38:47;;;;;;;9.48;5.57;;;9.20;99.90;;;;;;4958066;28;95808;-31
2022/10/07 01:41:16;;;;;;;11.30;5.93;;;9.20;99.90;;;;;;4957854;28;94560;-34
2022/10/07 01:43:44;;;;;;;21.98;6.90;;;9.10;99.90;;;;;;4957897;28;94576;-32
2022/10/07 01:46:14;;;;;;;10.20;6.03;;;9.10;99.90;;;;;;4958254;28;94150;-30
2022/10/07 01:48:40;;;;;;;14.40;5.60;;;9.10;99.90;;;;;;4958240;28;94100;-31
2022/10/07 01:51:07;;;;;;;8.55;5.60;;;9.10;99.90;;;;;;4958074;28;94007;-31
2022/10/07 01:53:44;;;;;;;12.65;5.30;;;9.10;99.90;;;;;;4957535;28;93837;-30
2022/10/07 01:56:47;;;;;;;10.10;6.05;;;9.10;99.90;;;;;;4944983;28;94793;-29
2022/10/07 01:59:41;;;;;;;12.48;6.63;;;9.10;99.90;;;;;;4957492;28;94276;-30
2022/10/07 02:02:31;;;;;;;14.35;5.72;;;9.10;99.90;;;;;;4957355;28;95580;-32
2022/10/07 02:05:20;;;;;;;13.38;6.38;;;9.10;99.90;;;;;;4946554;28;94769;-31
2022/10/07 02:07:50;;;;;;;12.73;5.78;;;9.10;99.90;;;;;;4909891;28;94805;-31
2022/10/07 02:10:53;;;;;;;8.38;5.30;;;9.10;99.90;;;;;;4939948;28;96557;-30
2022/10/07 02:13:30;;;;;;;16.15;6.10;;;9.10;99.90;;;;;;4916455;28;94219;-30
2022/10/07 02:16:10;;;;;;;7.60;5.47;;;9.10;99.90;;;;;;4957432;28;94079;-33
2022/10/07 02:18:39;;;;;;;7.75;5.70;;;9.20;99.90;;;;;;4945602;28;94005;-33
2022/10/07 02:21:07;;;;;;;10.43;5.70;;;9.10;99.90;;;;;;4939689;28;94216;-34
2022/10/07 02:23:37;;;;;;;13.98;5.05;;;9.10;99.90;;;;;;4958180;28;93669;-32
2022/10/07 02:26:04;;;;;;;9.90;6.05;;;9.10;99.90;;;;;;4958298;28;94239;-30
2022/10/07 02:28:34;;;;;;;13.38;6.47;;;9.10;99.90;;;;;;4956297;28;95733;-32
2022/10/07 02:31:02;;;;;;;9.63;6.10;;;9.10;99.90;;;;;;4957216;28;97130;-33
2022/10/07 02:33:31;;;;;;;8.73;5.93;;;9.10;99.90;;;;;;4956669;28;93636;-30
2022/10/07 02:35:58;;;;;;;;;;;9.10;99.90;;;;;;4957415;28;92616;-32
2022/10/07 02:38:25;;;;;;;15.83;7.60;;;9.10;99.90;;;;;;4957686;28;94800;-34
2022/10/07 02:41:00;;;;;;;18.23;6.18;;;9.00;99.90;;;;;;4956973;28;95030;-30
2022/10/07 02:43:39;;;;;;;10.50;5.90;;;9.00;99.90;;;;;;4956731;28;94780;-31
2022/10/07 02:46:25;;;;;;;7.82;6.28;;;9.00;99.90;;;;;;4957844;28;92725;-31
2022/10/07 02:48:55;;;;;;;5.70;5.10;;;9.00;99.90;;;;;;4957246;28;94874;-30
2022/10/07 02:51:24;;;;;;;10.77;5.57;;;9.00;99.90;;;;;;4956273;28;94619;-30
2022/10/07 02:53:51;;;;;;;18.80;7.45;;;8.90;99.90;;;;;;4956188;28;95440;-30
2022/10/07 02:56:21;;;;;;;12.38;6.25;;;9.00;99.90;;;;;;4957319;28;92514;-31
2022/10/07 02:58:49;;;;;;;9.18;6.45;;;8.90;99.90;;;;;;4957491;28;94758;-31
2022/10/07 03:01:22;;;;;;;20.08;6.40;;;8.90;99.90;;;;;;4957059;28;94548;-30
2022/10/07 03:03:47;;;;;;;13.88;6.57;;;8.90;99.90;;;;;;4957041;28;94884;-30
2022/10/07 03:06:16;;;;;;;14.43;7.45;;;8.90;99.90;;;;;;4957137;28;92147;-31
2022/10/07 03:08:42;;;;;;;9.88;6.55;;;8.90;99.90;;;;;;4956574;28;94922;-33
2022/10/07 03:11:08;;;;;;;7.20;6.03;;;8.90;99.90;;;;;;4956914;28;94430;-33
2022/10/07 03:13:34;;;;;;;16.23;6.60;;;8.90;99.90;;;;;;4960549;28;93859;-33
2022/10/07 03:16:00;;;;;;;13.70;5.93;;;8.90;99.90;;;;;;4960142;28;93363;-31
2022/10/07 03:18:27;;;;;;;7.72;5.90;;;8.90;99.90;;;;;;4959708;28;95632;-30
2022/10/07 03:20:54;;;;;;;10.45;6.35;;;8.90;99.90;;;;;;4960668;28;95813;-29
2022/10/07 03:23:21;;;;;;;12.40;6.53;;;8.90;99.90;;;;;;4960402;28;92211;-34
2022/10/07 03:25:51;;;;;;;12.80;8.02;;;9.00;99.90;;;;;;4960081;28;94130;-34
2022/10/07 03:28:21;;;;;;;12.93;5.95;;;8.90;99.90;;;;;;4959514;28;95303;-31
2022/10/07 03:30:48;;;;;;;16.27;6.28;;;8.90;99.90;;;;;;4959558;28;94681;-30
2022/10/07 03:33:15;;;;;;;16.48;6.28;;;8.90;99.90;;;;;;4960250;28;92987;-32
2022/10/07 03:35:41;;;;;;;10.57;7.25;;;8.90;99.90;;;;;;4961084;28;93477;-31
2022/10/07 03:38:07;;;;;;;10.13;6.35;;;8.90;99.90;;;;;;4959389;28;94702;-31
2022/10/07 03:40:37;;;;;;;10.38;5.88;;;8.90;99.90;;;;;;4959490;28;94930;-30
2022/10/07 03:43:03;;;;;;;13.30;6.63;;;8.90;99.90;;;;;;4959799;28;93936;-31
2022/10/07 03:45:29;;;;;;;12.68;6.13;;;8.80;99.90;;;;;;4959627;28;93276;-31
2022/10/07 03:47:56;;;;;;;15.25;6.38;;;8.90;99.90;;;;;;4959864;28;94806;-31
2022/10/07 03:50:22;;;;;;;8.82;5.93;;;8.90;99.90;;;;;;4959837;28;94512;-33
2022/10/07 03:52:48;;;;;;;12.45;6.85;;;8.90;99.90;;;;;;4959892;28;94484;-31
2022/10/07 03:55:15;;;;;;;16.63;6.50;;;8.80;99.90;;;;;;4959286;28;94183;-34
2022/10/07 03:57:50;;;;;;;17.40;7.10;;;8.80;99.90;;;;;;4959950;28;95053;-31
2022/10/07 04:00:16;;;;;;;12.57;6.20;;;8.90;99.90;;;;;;4959598;28;94493;-31
2022/10/07 04:02:42;;;;;;;9.27;6.75;;;8.90;99.90;;;;;;4960043;28;92213;-32
2022/10/07 04:05:09;;;;;;;15.55;6.82;;;8.80;99.90;;;;;;4959898;28;94343;-31
2022/10/07 04:07:34;;;;;;;14.32;6.20;;;8.80;99.90;;;;;;4958580;28;95550;-33
2022/10/07 04:10:00;;;;;;;10.65;6.53;;;8.80;99.90;;;;;;4959158;28;95579;-32
2022/10/07 04:12:26;;;;;;;12.27;6.40;;;8.90;99.90;;;;;;4959367;28;93332;-30
2022/10/07 04:14:52;;;;;;;12.30;6.00;;;8.90;99.90;;;;;;4959801;28;94369;-33
2022/10/07 04:17:18;;;;;;;18.33;6.45;;;8.90;99.90;;;;;;4959703;28;94777;-31
2022/10/07 04:19:44;;;;;;;7.72;6.40;;;9.00;99.90;;;;;;4958016;28;95543;-33
2022/10/07 04:22:10;;;;;;;10.85;5.93;;;8.90;99.90;;;;;;4959791;28;92508;-32
2022/10/07 04:24:35;;;;;;;13.43;6.60;;;8.90;99.90;;;;;;4959397;28;93322;-32
2022/10/07 04:27:03;;;;;;;17.15;6.50;;;9.00;99.90;;;;;;4959155;28;94747;-35
2022/10/07 04:29:30;;;;;;;21.55;6.60;;;8.90;99.90;;;;;;4959152;28;94072;-30
2022/10/07 04:31:57;;;;;;;13.32;6.03;;;9.00;99.90;;;;;;4958893;28;95074;-32
2022/10/07 04:34:22;;;;;;;16.17;7.45;;;9.00;99.90;;;;;;4958166;28;93133;-30
2022/10/07 04:36:48;;;;;;;13.90;6.03;;;9.00;99.90;;;;;;4959229;28;94604;-33
2022/10/07 04:39:13;;;;;;;12.25;8.35;;;9.00;99.90;;;;;;4958202;28;94485;-31
2022/10/07 04:41:39;;;;;;;10.32;7.05;;;9.00;99.90;;;;;;4959117;28;93341;-31
2022/10/07 04:44:05;;;;;;;19.73;9.82;;;9.00;99.90;;;;;;4959297;28;93267;-30
2022/10/07 04:46:31;;;;;;;15.77;7.15;;;9.10;99.90;;;;;;4958376;28;95035;-31
2022/10/07 04:48:57;;;;;;;30.63;21.65;;;9.10;99.90;;;;;;4959258;28;94274;-29
2022/10/07 04:51:23;;;;;;;15.90;6.40;;;9.10;99.90;;;;;;4957809;28;94366;-32
2022/10/07 04:53:52;;;;;;;17.20;7.90;;;9.10;99.90;;;;;;4958242;28;92525;-30
2022/10/07 04:56:18;;;;;;;15.00;7.15;;;9.10;99.90;;;;;;4958165;28;95647;-29
2022/10/07 04:58:44;;;;;;;12.38;6.88;;;9.10;99.90;;;;;;4958811;28;96521;-32
2022/10/07 05:01:10;;;;;;;18.13;6.75;;;9.10;99.90;;;;;;4958810;28;92384;-31
2022/10/07 05:03:37;;;;;;;12.02;6.70;;;9.10;99.90;;;;;;4958765;28;92235;-32
2022/10/07 05:06:03;;;;;;;10.90;6.47;;;9.10;99.90;;;;;;4958425;28;94925;-30
2022/10/07 05:08:29;;;;;;;15.60;7.05;;;9.10;99.90;;;;;;4957665;28;94540;-31
2022/10/07 05:10:55;;;;;;;11.20;7.53;;;9.10;99.90;;;;;;4959347;28;93456;-32
2022/10/07 05:13:23;;;;;;;17.45;7.32;;;9.10;99.90;;;;;;4958992;28;92307;-33
2022/10/07 05:15:51;;;;;;;12.18;6.47;;;9.10;99.90;;;;;;4940825;28;95012;-29
2022/10/07 05:18:18;;;;;;;9.50;5.65;;;9.10;99.90;;;;;;4958084;28;94614;-32
2022/10/07 05:20:46;;;;;;;17.20;7.13;;;9.10;99.90;;;;;;4958493;28;94381;-33
2022/10/07 05:23:12;;;;;;;13.75;6.10;;;9.10;99.90;;;;;;4958172;28;93551;-32
2022/10/07 05:25:38;;;;;;;9.50;6.88;;;9.10;99.90;;;;;;4958432;28;94694;-29
2022/10/07 05:28:04;;;;;;;15.60;7.32;;;9.10;99.90;;;;;;4958363;28;95448;-32
2022/10/07 05:30:30;;;;;;;11.85;6.72;;;9.00;99.90;;;;;;4957943;28;93201;-32
2022/10/07 05:32:56;;;;;;;14.32;7.07;;;9.00;99.90;;;;;;4957894;28;92948;-31
2022/10/07 05:35:21;;;;;;;16.83;6.65;;;9.00;99.90;;;;;;4957128;28;94843;-30
2022/10/07 05:37:52;;;;;;;13.93;7.15;;;9.00;99.90;;;;;;4958050;28;94645;-32
2022/10/07 05:40:18;;;;;;;9.50;6.60;;;9.00;99.90;;;;;;4957747;28;94218;-30
2022/10/07 05:42:44;;;;;;;13.80;7.28;;;9.10;99.90;;;;;;4957678;28;95172;-30
2022/10/07 05:45:09;;;;;;;13.70;6.60;;;9.10;99.90;;;;;;4957581;28;95725;-31
2022/10/07 05:47:35;;;;;;;16.88;9.20;;;9.10;99.90;;;;;;4957185;28;95420;-34
2022/10/07 05:50:01;;;;;;;12.40;7.97;;;9.20;99.90;;;;;;4958199;28;93020;-31
2022/10/07 05:52:28;;;;;;;19.65;7.53;;;9.20;99.90;;;;;;4956798;28;94304;-32
2022/10/07 05:54:54;;;;;;;10.20;6.53;;;9.20;99.90;;;;;;4958058;28;95618;-30
2022/10/07 05:57:21;;;;;;;15.45;7.47;;;9.20;99.90;;;;;;4957030;28;94898;-31
2022/10/07 05:59:47;;;;;;;12.95;6.18;;;9.20;99.90;;;;;;4956467;28;92643;-32
2022/10/07 06:02:14;;;;;;;11.23;6.28;;;9.20;99.90;;;;;;4956949;28;94857;-33
2022/10/07 06:04:43;;;;;;;14.20;6.80;;;9.30;99.90;;;;;;4957290;28;93265;-30
2022/10/07 06:07:09;;;;;;;23.00;8.02;;;9.20;99.90;;;;;;4958013;28;93633;-30
2022/10/07 06:15:04;;;;;;;11.45;7.65;;;9.30;99.90;;;;;;4956690;28;95030;-31
2022/10/07 06:17:30;;;;;;;18.25;8.65;;;9.30;99.90;;;;;;4957437;28;94597;-31
2022/10/07 06:19:55;;;;;;;18.45;6.68;;;9.30;99.90;;;;;;4957337;28;94542;-31
2022/10/07 06:22:21;;;;;;;15.65;7.30;;;9.30;99.90;;;;;;4956895;28;92720;-31
2022/10/07 06:24:47;;;;;;;15.43;7.43;;;9.30;99.90;;;;;;4956751;28;94694;-33
2022/10/07 06:27:12;;;;;;;10.55;6.43;;;9.30;99.90;;;;;;4956706;28;94337;-32
2022/10/07 06:29:38;;;;;;;9.35;7.10;;;9.40;99.90;;;;;;4957489;28;93688;-31
2022/10/07 06:32:04;;;;;;;14.65;7.38;;;9.40;99.90;;;;;;4957077;28;92446;-30
2022/10/07 06:34:31;;;;;;;16.73;6.95;;;9.40;99.90;;;;;;4938083;28;95605;-31
2022/10/07 06:36:56;;;;;;;11.07;6.65;;;9.40;99.90;;;;;;4957141;28;95198;-32
2022/10/07 06:39:22;;;;;;;22.88;7.30;;;9.50;99.90;;;;;;4944187;28;93160;-31
2022/10/07 06:41:51;;;;;;;22.20;7.57;;;9.50;99.90;;;;;;4952159;28;93036;-30
2022/10/07 06:44:16;;;;;;;12.77;6.70;;;9.50;99.90;;;;;;4955379;28;93391;-32
2022/10/07 06:46:42;;;;;;;11.80;6.82;;;9.60;99.90;;;;;;4954740;28;94542;-33
2022/10/07 06:49:07;;;;;;;11.35;6.60;;;9.60;99.90;;;;;;4955608;28;94556;-33
2022/10/07 06:51:33;;;;;;;15.45;6.78;;;9.70;99.90;;;;;;4942731;28;92881;-30
2022/10/07 06:54:00;;;;;;;15.32;7.32;;;9.80;99.90;;;;;;4953832;28;94558;-31
2022/10/07 06:56:25;;;;;;;11.48;7.18;;;9.80;99.90;;;;;;4955525;28;93917;-31
2022/10/07 06:58:51;;;;;;;12.95;7.47;;;9.90;99.90;;;;;;4954384;28;93341;-33
2022/10/07 07:01:17;;;;;;;17.92;6.90;;;9.90;99.90;;;;;;4954717;28;94382;-34
2022/10/07 07:03:42;;;;;;;16.42;6.57;;;10.10;99.90;;;;;;4954503;28;94880;-33
2022/10/07 07:06:09;;;;;;;16.70;6.15;;;10.10;99.90;;;;;;4954062;28;94613;-34
2022/10/07 07:08:37;;;;;;;17.35;6.97;;;10.20;99.90;;;;;;4955469;28;94800;-33
2022/10/07 07:13:57;;;;;;;15.05;7.00;;;10.30;99.90;;;;;;4955277;28;93485;-32
2022/10/07 07:16:23;;;;;;;15.50;7.47;;;10.30;99.90;;;;;;4954784;28;94774;-31
2022/10/07 07:18:51;;;;;;;8.57;5.97;;;10.40;99.90;;;;;;4955751;28;93103;-30
2022/10/07 07:21:16;;;;;;;15.17;7.13;;;10.40;99.90;;;;;;4954562;28;93374;-30
2022/10/07 07:23:42;;;;;;;10.75;5.82;;;10.50;99.90;;;;;;4954476;28;95947;-33
2022/10/07 07:26:07;;;;;;;24.33;6.40;;;10.60;99.90;;;;;;4954195;28;95960;-32
2022/10/07 07:28:33;;;;;;;15.00;7.28;;;10.70;99.90;;;;;;4954740;28;95001;-35
2022/10/07 07:30:59;;;;;;;14.77;6.47;;;10.80;99.90;;;;;;4954832;28;94542;-33
2022/10/07 07:33:24;;;;;;;16.38;6.25;;;10.90;99.90;;;;;;4953714;28;94968;-34
2022/10/07 07:35:50;;;;;;;23.35;9.65;;;10.90;99.90;;;;;;4954902;28;94470;-32
2022/10/07 07:38:15;;;;;;;26.55;13.18;;;11.00;99.90;;;;;;4954337;28;94581;-31
2022/10/07 07:40:41;;;;;;;13.05;6.15;;;11.10;99.90;;;;;;4954719;28;92833;-32
2022/10/07 07:43:07;;;;;;;13.50;5.68;;;11.20;99.90;;;;;;4954597;28;94715;-31
2022/10/07 07:45:35;;;;;;;9.52;6.05;;;11.30;99.90;;;;;;4954264;28;95326;-34
2022/10/07 07:48:01;;;;;;;18.70;5.82;;;11.40;99.90;;;;;;4954738;28;95423;-32
2022/10/07 07:50:27;;;;;;;12.52;5.78;;;11.50;99.90;;;;;;4954200;28;92382;-31
2022/10/07 07:52:55;;;;;;;15.25;5.18;;;11.50;99.90;;;;;;4954464;28;94762;-32
2022/10/07 07:55:22;;;;;;;;;;;11.60;99.90;;;;;;4954579;28;95015;-31
2022/10/07 07:57:48;;;;;;;14.75;7.03;;;11.70;99.90;;;;;;4956764;28;94409;-33
2022/10/07 08:00:15;;;;;;;13.90;6.90;;;11.80;99.90;;;;;;4972351;28;93855;-30
2022/10/07 08:02:41;;;;;;;15.43;5.18;;;11.80;99.90;;;;;;4977796;28;94833;-30
2022/10/07 08:05:07;;;;;;;11.23;5.88;;;11.90;99.90;;;;;;4977588;28;95089;-32
2022/10/07 08:07:34;;;;;;;17.35;5.55;;;11.80;99.90;;;;;;4970023;28;92893;-31
2022/10/07 08:09:59;;;;;;;25.92;5.30;;;11.90;99.90;;;;;;4969773;28;92636;-31
2022/10/07 08:12:25;;;;;;;11.77;4.97;;;11.90;99.90;;;;;;4976671;28;97789;-31
2022/10/07 08:14:51;;;;;;;15.07;5.90;;;11.90;99.90;;;;;;4972072;28;94697;-31
2022/10/07 08:17:16;;;;;;;9.35;5.30;;;11.90;99.90;;;;;;4957990;28;93501;-29
2022/10/07 08:19:42;;;;;;;10.85;5.97;;;11.90;99.90;;;;;;4955730;28;92814;-32
2022/10/07 08:22:08;;;;;;;12.00;6.28;;;12.00;99.90;;;;;;4956700;28;94719;-32
2022/10/07 08:24:33;;;;;;;12.30;5.75;;;12.10;99.90;;;;;;4956060;28;94191;-31
2022/10/07 08:26:59;;;;;;;11.20;5.35;;;12.10;99.90;;;;;;4956146;28;93953;-33
2022/10/07 08:29:25;;;;;;;9.88;4.78;;;12.20;99.90;;;;;;4954385;28;94075;-30
2022/10/07 08:31:50;;;;;;;15.20;5.00;;;12.30;99.90;;;;;;4956016;28;93813;-30
2022/10/07 08:34:16;;;;;;;12.07;5.15;;;12.40;99.90;;;;;;4956575;28;94907;-33
2022/10/07 08:36:46;;;;;;;10.50;5.15;;;12.50;99.90;;;;;;4955521;28;94081;-33
2022/10/07 08:39:11;;;;;;;14.07;5.80;;;12.60;99.90;;;;;;4955620;28;94576;-33
2022/10/07 08:41:53;;;;;;;8.85;4.38;;;12.60;99.90;;;;;;4956374;28;94540;-30
2022/10/07 08:44:36;;;;;;;12.43;4.68;;;12.70;99.90;;;;;;4945891;28;93520;-34
2022/10/07 08:47:10;;;;;;;7.32;4.10;;;12.70;99.90;;;;;;4955945;28;93535;-32
2022/10/07 08:49:52;;;;;;;14.63;6.85;;;12.70;99.90;;;;;;4956549;28;92359;-30
2022/10/07 08:52:52;;;;;;;12.38;4.63;;;12.80;99.90;;;;;;4955632;28;94816;-30
2022/10/07 08:55:42;;;;;;;9.43;4.97;;;12.80;99.90;;;;;;4955471;28;94620;-31
2022/10/07 08:58:42;;;;;;;22.27;6.18;;;12.90;99.90;;;;;;4947903;28;92987;-30
2022/10/07 09:01:11;;;;;;;12.48;4.95;;;13.00;99.90;;;;;;4955140;28;93749;-33
2022/10/07 09:04:01;;;;;;;5.15;4.15;;;13.10;99.90;;;;;;4955165;28;95510;-34
2022/10/07 09:06:36;;;;;;;12.65;4.82;;;13.20;99.90;;;;;;4944914;28;95417;-32
2022/10/07 09:09:10;;;;;;;12.18;4.20;;;13.40;99.90;;;;;;4971866;28;93474;-31
2022/10/07 09:11:37;;;;;;;7.68;4.40;;;13.50;99.90;;;;;;4975023;28;93501;-33
2022/10/07 09:14:16;;;;;;;12.43;4.93;;;13.70;99.90;;;;;;4976621;28;94667;-33
2022/10/07 09:16:45;;;;;;;7.53;4.18;;;13.80;99.90;;;;;;4924603;28;94570;-33
2022/10/07 09:19:27;;;;;;;11.50;4.97;;;13.90;99.90;;;;;;4956057;28;93363;-30
2022/10/07 09:22:00;;;;;;;16.80;4.72;;;14.00;99.90;;;;;;4959258;28;92447;-32
2022/10/07 09:24:29;;;;;;;15.63;5.85;;;14.20;99.90;;;;;;4975809;28;94800;-31
2022/10/07 09:26:58;;;;;;;21.80;6.00;;;14.20;99.90;;;;;;4975278;28;94915;-32
2022/10/07 09:29:27;;;;;;;12.70;4.00;;;14.30;99.90;;;;;;4974694;28;95878;-32
2022/10/07 09:31:54;;;;;;;10.48;4.07;;;14.40;99.90;;;;;;4975328;28;94919;-30
2022/10/07 09:34:23;;;;;;;13.32;3.97;;;14.60;99.90;;;;;;4975048;28;94432;-33
2022/10/07 09:37:07;;;;;;;12.88;4.20;;;14.70;99.90;;;;;;4975222;28;94645;-32
2022/10/07 09:39:33;;;;;;;10.98;4.38;;;14.90;99.90;;;;;;4950087;28;94545;-32
2022/10/07 09:42:00;;;;;;;15.65;4.50;;;15.00;99.90;;;;;;4975064;28;93313;-33
2022/10/07 09:44:26;;;;;;;13.70;5.22;;;15.20;99.90;;;;;;4975172;28;95175;-32
2022/10/07 09:47:15;;;;;;;5.85;3.13;;;15.30;99.90;;;;;;4975499;28;94499;-31
2022/10/07 09:49:44;;;;;;;18.88;4.63;;;15.30;99.90;;;;;;4976286;28;93363;-31
2022/10/07 09:52:13;;;;;;;14.27;2.83;;;15.40;99.90;;;;;;4974055;28;92473;-33
2022/10/07 09:54:39;;;;;;;10.23;4.10;;;15.40;99.90;;;;;;4974121;28;96627;-31
2022/10/07 09:57:19;;;;;;;8.30;3.75;;;15.50;99.90;;;;;;4974784;28;95537;-33
2022/10/07 09:59:44;;;;;;;16.70;3.28;;;15.50;99.90;;;;;;4975334;28;92260;-31
2022/10/07 10:02:13;;;;;;;9.35;3.05;;;15.50;99.90;;;;;;4975306;28;93569;-29
2022/10/07 10:04:54;;;;;;;9.95;3.45;;;15.50;99.90;;;;;;4975132;28;95216;-32
2022/10/07 10:07:29;;;;;;;13.20;4.13;;;15.60;99.90;;;;;;4974431;28;94521;-32
2022/10/07 10:09:58;;;;;;;10.50;3.70;;;15.50;99.90;;;;;;4974969;28;93922;-31
2022/10/07 10:12:24;;;;;;;8.63;3.05;;;15.50;99.90;;;;;;4974740;28;91383;-31
2022/10/07 10:15:00;;;;;;;10.77;3.75;;;15.50;99.90;;;;;;4970343;28;95282;-32
2022/10/07 10:17:37;;;;;;;11.32;4.25;;;15.60;99.90;;;;;;4955455;28;94136;-31
2022/10/07 10:20:43;;;;;;;11.52;3.22;;;15.60;99.90;;;;;;4954180;28;94159;-32
2022/10/07 10:23:26;;;;;;;7.53;3.33;;;15.80;99.90;;;;;;4954415;28;92486;-33
2022/10/07 10:29:01;;;;;;;13.65;4.32;;;15.90;99.90;;;;;;4944954;28;94580;-32
2022/10/07 10:31:43;;;;;;;12.00;3.28;;;15.90;99.90;;;;;;4954120;28;93244;-33
2022/10/07 10:34:41;;;;;;;10.48;3.63;;;16.00;99.90;;;;;;4955205;28;92161;-31
2022/10/07 10:37:07;;;;;;;16.40;3.58;;;16.00;99.90;;;;;;4943427;28;94358;-32
2022/10/07 10:39:45;;;;;;;10.63;3.65;;;16.20;99.90;;;;;;4954476;28;95933;-31
2022/10/07 10:42:15;;;;;;;14.10;3.75;;;16.30;99.90;;;;;;4954788;28;94412;-32
2022/10/07 10:44:43;;;;;;;8.60;2.90;;;16.40;99.90;;;;;;4954365;28;92524;-32
2022/10/07 10:47:18;;;;;;;7.95;3.70;;;16.50;99.90;;;;;;4953084;28;95680;-32
2022/10/07 10:50:16;;;;;;;9.07;3.33;;;16.50;99.90;;;;;;4954567;28;95485;-32
2022/10/07 10:52:52;;;;;;;;;;;16.60;99.90;;;;;;4945919;28;93288;-32
2022/10/07 10:55:26;;;;;;;10.27;3.45;;;16.70;99.90;;;;;;4955467;28;92550;-33
2022/10/07 10:58:26;;;;;;;10.52;3.75;;;16.80;99.90;;;;;;4953863;28;94933;-33
2022/10/07 11:01:10;;;;;;;8.80;2.90;;;16.90;99.90;;;;;;4954062;28;93141;-32
2022/10/07 11:04:11;;;;;;;6.38;3.13;;;17.00;99.90;;;;;;4954968;28;94223;-30
2022/10/07 11:06:40;;;;;;;13.15;2.85;;;17.00;99.90;;;;;;4954287;28;92824;-30
2022/10/07 11:09:15;;;;;;;11.50;3.50;;;17.10;99.90;;;;;;4954003;28;94108;-33
2022/10/07 11:11:42;;;;;;;17.63;3.67;;;17.20;99.90;;;;;;4954361;28;94950;-31
2022/10/07 11:14:16;;;;;;;12.25;3.60;;;17.30;99.90;;;;;;4954065;28;95084;-34
2022/10/07 11:16:48;;;;;;;7.18;3.45;;;17.30;99.90;;;;;;4941179;28;94355;-34
2022/10/07 11:19:36;;;;;;;7.45;2.97;;;17.30;99.90;;;;;;4954042;28;94772;-31
2022/10/07 11:22:03;;;;;;;4.13;2.72;;;17.40;99.90;;;;;;4942558;28;94684;-31
2022/10/07 11:24:39;;;;;;;13.68;3.75;;;17.40;99.90;;;;;;4954741;28;93346;-34
2022/10/07 11:27:23;;;;;;;8.52;3.63;;;17.40;99.90;;;;;;4953820;28;95035;-30
2022/10/07 11:30:08;;;;;;;6.63;2.80;;;17.40;99.90;;;;;;4953226;28;94428;-35
2022/10/07 11:32:54;;;;;;;11.73;3.30;;;17.50;99.90;;;;;;4954284;28;93343;-32
2022/10/07 11:35:32;;;;;;;7.07;2.85;;;17.50;99.90;;;;;;4956590;28;93502;-31
2022/10/07 11:38:09;;;;;;;7.20;3.23;;;17.60;99.90;;;;;;4958104;28;94578;-32
2022/10/07 11:40:47;;;;;;;10.48;3.40;;;17.80;99.90;;;;;;4956077;28;95816;-33
2022/10/07 11:43:31;;;;;;;8.90;3.35;;;17.80;99.90;;;;;;4957338;28;94794;-31
2022/10/07 11:46:19;;;;;;;13.25;3.70;;;17.80;99.90;;;;;;4954694;28;93590;-31
2022/10/07 11:48:53;;;;;;;12.85;2.67;;;17.80;99.90;;;;;;4955542;28;92702;-31
2022/10/07 11:51:36;;;;;;;9.30;3.72;;;17.70;99.90;;;;;;4956423;28;94809;-34
2022/10/07 11:54:05;;;;;;;7.70;2.63;;;17.60;99.90;;;;;;4956582;28;94066;-32
2022/10/07 11:56:43;;;;;;;7.97;3.65;;;17.40;99.90;;;;;;4956279;28;93980;-32
2022/10/07 11:59:33;;;;;;;5.45;3.00;;;17.40;99.90;;;;;;4956986;28;92780;-31
2022/10/07 12:01:59;;;;;;;7.28;2.92;;;17.50;99.90;;;;;;4954813;28;95913;-34
2022/10/07 12:04:28;;;;;;;4.85;2.13;;;17.60;99.90;;;;;;4953726;28;94516;-31
2022/10/07 12:07:31;;;;;;;8.52;2.58;;;17.70;99.90;;;;;;4957394;28;94999;-31
2022/10/07 12:10:02;;;;;;;12.38;3.63;;;17.80;99.90;;;;;;4957935;28;93029;-31
2022/10/07 12:12:43;;;;;;;9.00;4.00;;;17.80;99.90;;;;;;4956642;28;95088;-32
2022/10/07 12:15:33;;;;;;;6.50;2.97;;;17.90;99.90;;;;;;4956480;28;94471;-32
2022/10/07 12:18:02;;;;;;;5.65;2.53;;;17.90;99.90;;;;;;4956445;28;92782;-31
2022/10/07 12:20:33;;;;;;;6.05;3.40;;;18.00;99.90;;;;;;4956776;28;94064;-34
2022/10/07 12:23:17;;;;;;;5.28;2.72;;;18.10;99.90;;;;;;4956639;28;94675;-30
2022/10/07 12:25:47;;;;;;;9.65;3.50;;;18.10;99.90;;;;;;4956806;28;94567;-31
2022/10/07 12:28:29;;;;;;;12.07;3.15;;;17.90;99.90;;;;;;4956648;28;94079;-32
2022/10/07 12:31:00;;;;;;;5.78;2.85;;;17.90;99.90;;;;;;4956370;28;93231;-33
2022/10/07 12:33:44;;;;;;;8.38;3.47;;;17.80;99.90;;;;;;4955879;28;95706;-31
2022/10/07 12:36:22;;;;;;;10.18;3.25;;;17.80;99.90;;;;;;4956097;28;95423;-32
2022/10/07 12:38:58;;;;;;;9.68;3.55;;;17.70;99.90;;;;;;4939821;28;92744;-33
2022/10/07 12:41:34;;;;;;;4.60;3.03;;;17.60;99.90;;;;;;4956350;28;94962;-33
2022/10/07 12:44:04;;;;;;;12.02;3.47;;;17.60;99.90;;;;;;4947118;28;94572;-32
2022/10/07 12:46:52;;;;;;;12.40;3.17;;;17.60;99.90;;;;;;4955586;28;94970;-34
2022/10/07 12:49:35;;;;;;;10.50;2.33;;;17.80;99.90;;;;;;4904538;28;94792;-34
2022/10/07 12:52:14;;;;;;;13.57;3.17;;;17.80;99.90;;;;;;4968708;22;93966;-32
2022/10/07 12:54:50;;;;;;;6.88;3.45;;;17.80;99.90;;;;;;4951325;28;94554;-33
2022/10/07 12:57:32;;;;;;;9.45;3.42;;;17.70;99.90;;;;;;4947387;28;94279;-31
2022/10/07 13:00:07;;;;;;;11.10;3.25;;;17.70;99.90;;;;;;4951402;28;94184;-33
2022/10/07 13:02:41;;;;;;;5.57;3.78;;;17.60;99.90;;;;;;4945974;28;94857;-34
2022/10/07 13:05:28;;;;;;;6.80;2.20;;;17.60;99.90;;;;;;4951495;28;96106;-33
2022/10/07 13:08:07;;;;;;;7.32;2.60;;;17.70;99.90;;;;;;4948566;28;94469;-31
2022/10/07 13:11:00;;;;;;;4.88;2.50;;;17.80;99.90;;;;;;4949991;28;93963;-32
2022/10/07 13:13:39;;;;;;;11.15;3.95;;;17.70;99.90;;;;;;4951517;28;94268;-33
2022/10/07 13:16:36;;;;;;;7.03;2.45;;;17.70;99.90;;;;;;4937653;28;94328;-31
2022/10/07 13:19:23;;;;;;;4.28;2.20;;;17.70;99.90;;;;;;4937374;28;95291;-33